Becker, MN

9:41 AM CDT on April 26, 2017 (GMT -0500)
Becker-PW | | Change Station

Elev 974 ft 45.41 °N, 93.90 °W | Updated 1 minute ago

Rain
Rain
35.5 °F
Feels Like 29 °F
N
8.8
Wind Variable Wind from NNE
Gusts 15.2 mph

Today
High -- | Low -- °F
--% Chance of Precip.
Yesterday
High -- | Low -- °F
Precip. -- in
Pressure 29.56 in
Visibility 10.0 miles
Clouds Mostly Cloudy 1400 ft
Overcast 2000 ft
Windchill 29 °F
Dew Point 35 °F
Humidity 96%
Rainfall 0.38 in
Snow Depth Not available.
6:11 AM 8:16 PM
New Moon, 0% visible
METAR KMGG 261432Z AUTO 36009G15KT 10SM -DZ BKN014 OVC020 02/01 A2956 RMK AO2 T00210013
Pressure 29.56 in
Visibility 10.0 miles
Clouds Mostly Cloudy 1400 ft
Overcast 2000 ft
Windchill 29 °F
Dew Point 35 °F
Humidity 96%
Rainfall 0.38 in
Snow Depth Not available.
6:11 AM 8:16 PM
New Moon, 0% visible
METAR KMGG 261432Z AUTO 36009G15KT 10SM -DZ BKN014 OVC020 02/01 A2956 RMK AO2 T00210013

Get Severe Weather Alerts

Thanks for signing up!

Be on the lookout for a verification email in your inbox.

You'll start receiving the daily forecast at 8 AM.

×

10-Day Weather Forecast

Almanac

Astronomy

Apr. 26, 2017 Rise Set
Actual Time
Civil Twilight
Nautical Twilight
Astronomical Twilight
Moon
Length of Visible Light
Length of Day
Tomorrow will be .
, % of the Moon is Illuminated

Today's Extremes

State Highs State Lows

Community

WunderPhotos

WunderBlog® & News

Nearby

Air Quality

  Air Quality AQ Index Pollutant
Not available.

Snow Depth

Station Depth Elevation

Earthquake Activity

City Distance Mag. Time & Date
Minimum magnitude displayed is 2.5.

Coastal Water Temperatures

Place Temperature

Stations

Nearby Weather Stations

Station Location Temp. Windchill Dew Point Humidity Wind Precip. Elev Updated Type
                   

Watches & Warnings

There are currently no watches in effect.